Altavista, VA

7:40 PM EST on February 27, 2015 (GMT -0500)
Altavista | Change Station
CLOSE
Current Station
Personal Weather Station
Location: Altavista, VA
Elevation: 591 ft
Nearby Weather Stations
Active Advisory: Special Statement

Elev 591 ft 37.11 °N, 79.29 °W | Updated 14 minutes ago

Clear
Clear
31.5 °F
Feels Like 32 °F
N
2.7
Wind Variable Wind from NNW

Today
High -- | Low -- °F
--% Chance of Precip.
Yesterday
High -- | Low -- °F
Precip. -- in
6:51 AM 6:09 PM
Waxing Gibbous, 73% visible
Pressure 30.51 in
Visibility 10.0 miles
Clouds Clear
Windchill 32 °F
Dew Point 13 °F
Humidity 46%
Rainfall 0.09 in
Snow Depth Not available.
UV 0 out of 12
Pollen 2.50 out of 12
Air Quality Not available.
Flu Activity Not available.
METAR KLYH 272354Z 31005KT 10SM CLR M01/M12 A3048 RMK AO2 SLP330 T10061122 10028 21006 53027

More Conditions Fewer Conditions

Pressure 30.51 in
Visibility 10.0 miles
Clouds Clear
Windchill 32 °F
Dew Point 13 °F
Humidity 46%
Rainfall 0.09 in
Snow Depth Not available.
UV 0 out of 12
Pollen 2.50 out of 12
Air Quality Not available.
Flu Activity Not available.
METAR KLYH 272354Z 31005KT 10SM CLR M01/M12 A3048 RMK AO2 SLP330 T10061122 10028 21006 53027

More Conditions Fewer Conditions

10-Day Weather Forecast

Almanac

Astronomy

Feb. 27, 2015 Rise Set
Actual Time
Civil Twilight
Nautical Twilight
Astronomical Twilight
Moon
Length of Visible Light
Length of Day
Tomorrow will be .
, % of the Moon is Illuminated

Today's Extremes

State Highs State Lows

Community

WunderPhotos

Upload Photos

1,800,910 photos uploaded!

WunderBlogs® & News

Nearby

Air Quality

  Air Quality AQ Index Pollutant
Not available.

Snow Depth

Station Depth Elevation

Earthquake Activity

City Distance Mag. Time & Date
Minimum magnitude displayed is 2.5.

Coastal Water Temperatures

Place Temperature

Nearby Weather Stations

Special Statement
Statement as of 2:59 PM EST on February 27, 2015

... Areas of black ice expected tonight...

Temperatures climbed into the upper 30s to the lower 40s Friday
afternoon. This helped prompt snow to melt. The resulting wet
surfaces... and pooling of water... will refreeze tonight not long
after sunset... but still appear only wet. This may cause travel
difficulties. Be prepared for slippery roads... sidewalks and
parking lots... and use caution while driving.


Ds